createdAt,value
2023-03-02T00:01:41.774Z,1.70
2023-03-02T00:04:12.519Z,1.80
2023-03-02T00:06:39.538Z,1.80
2023-03-02T00:09:06.496Z,1.80
2023-03-02T00:11:37.484Z,1.70
2023-03-02T00:14:05.035Z,1.70
2023-03-02T00:16:32.008Z,1.70
2023-03-02T00:18:58.929Z,1.70
2023-03-02T00:21:25.940Z,1.70
2023-03-02T00:23:53.059Z,1.70
2023-03-02T00:26:20.309Z,1.70
2023-03-02T00:28:47.329Z,1.60
2023-03-02T00:31:14.107Z,1.60
2023-03-02T00:33:40.863Z,1.60
2023-03-02T00:36:18.393Z,1.60
2023-03-02T00:38:45.233Z,1.50
2023-03-02T00:41:14.318Z,1.50
2023-03-02T00:43:41.244Z,1.40
2023-03-02T00:46:16.526Z,1.40
2023-03-02T00:48:43.474Z,1.40
2023-03-02T00:51:11.062Z,1.30
2023-03-02T00:53:38.553Z,1.30
2023-03-02T00:56:06.099Z,1.30
2023-03-02T00:58:33.189Z,1.20
2023-03-02T01:01:04.826Z,1.20
2023-03-02T01:03:31.633Z,1.20
2023-03-02T01:05:58.616Z,1.20
2023-03-02T01:08:25.299Z,1.10
2023-03-02T01:10:54.324Z,1.10
2023-03-02T01:13:21.324Z,1.10
2023-03-02T01:15:48.194Z,1.00
2023-03-02T01:18:14.987Z,1.00
2023-03-02T01:20:41.682Z,1.00
2023-03-02T01:23:08.325Z,2.40
2023-03-02T01:25:35.053Z,0.80
2023-03-02T01:28:01.746Z,0.90
2023-03-02T01:30:28.439Z,0.80
2023-03-02T01:32:55.101Z,0.80
2023-03-02T01:35:21.934Z,0.70
2023-03-02T01:37:48.646Z,0.60
2023-03-02T01:40:15.364Z,0.60
2023-03-02T01:42:51.199Z,0.60
2023-03-02T01:45:45.768Z,0.60
2023-03-02T01:48:14.526Z,0.50
2023-03-02T01:50:41.519Z,0.50
2023-03-02T01:53:08.459Z,0.40
2023-03-02T01:55:38.858Z,0.40
2023-03-02T01:58:06.822Z,0.40
2023-03-02T02:00:38.374Z,0.40
2023-03-02T02:03:16.284Z,0.40
2023-03-02T02:05:46.448Z,0.40
2023-03-02T02:08:14.001Z,0.40
2023-03-02T02:10:41.393Z,0.40
2023-03-02T02:13:11.692Z,0.40
2023-03-02T02:15:40.324Z,0.30
2023-03-02T02:18:08.025Z,0.30
2023-03-02T02:20:41.093Z,0.30
2023-03-02T02:23:27.507Z,0.30
2023-03-02T02:25:58.027Z,0.30
2023-03-02T02:28:44.800Z,0.40
2023-03-02T02:31:23.662Z,0.40
2023-03-02T02:33:55.425Z,0.40
2023-03-02T02:36:26.992Z,0.50
2023-03-02T02:38:56.319Z,0.50
2023-03-02T02:41:28.715Z,0.50
2023-03-02T02:43:56.178Z,0.50
2023-03-02T02:46:24.536Z,0.50
2023-03-02T02:48:51.517Z,0.10
2023-03-02T02:51:26.036Z,0.40
2023-03-02T02:54:00.217Z,0.30
2023-03-02T02:56:30.734Z,0.30
2023-03-02T02:59:03.162Z,0.20
2023-03-02T03:01:30.327Z,0.20
2023-03-02T03:04:01.393Z,0.30
2023-03-02T03:06:38.306Z,0.30
2023-03-02T03:09:07.089Z,0.30
2023-03-02T03:11:41.378Z,0.20
2023-03-02T03:14:10.721Z,0.20
2023-03-02T03:16:39.745Z,0.20
2023-03-02T03:19:27.892Z,0.10
2023-03-02T03:21:56.712Z,0.10
2023-03-02T03:24:24.225Z,0.00
2023-03-02T03:26:51.381Z,0.00
2023-03-02T03:29:18.867Z,0.00
2023-03-02T03:31:45.660Z,0.00
2023-03-02T03:34:12.621Z,0.00
2023-03-02T03:36:39.493Z,0.00
2023-03-02T03:39:06.413Z,0.00
2023-03-02T03:41:33.442Z,-0.10
2023-03-02T03:44:00.237Z,-0.10
2023-03-02T03:46:27.031Z,-0.10
2023-03-02T03:48:53.919Z,-0.20
2023-03-02T03:51:20.923Z,-0.20
2023-03-02T03:53:59.574Z,-0.20
2023-03-02T03:56:31.603Z,-0.20
2023-03-02T03:59:06.390Z,-0.20
2023-03-02T04:01:51.533Z,-0.20
2023-03-02T04:04:21.986Z,-0.10
2023-03-02T04:06:48.794Z,-0.10
2023-03-02T04:09:17.983Z,-0.10
2023-03-02T04:11:46.500Z,-0.10
2023-03-02T04:14:14.071Z,0.00
2023-03-02T04:16:41.699Z,0.00
2023-03-02T04:19:09.505Z,0.10
2023-03-02T04:21:42.335Z,0.10
2023-03-02T04:24:09.486Z,0.10
2023-03-02T04:26:38.588Z,0.10
2023-03-02T04:29:06.258Z,0.00
2023-03-02T04:31:33.021Z,0.00
2023-03-02T04:34:00.615Z,-0.10
2023-03-02T04:36:27.310Z,-0.10
2023-03-02T04:38:54.407Z,0.00
2023-03-02T04:41:21.763Z,-0.10
2023-03-02T04:43:49.071Z,-0.10
2023-03-02T04:46:18.860Z,-0.10
2023-03-02T04:48:45.772Z,-0.10
2023-03-02T04:51:24.039Z,-0.10
2023-03-02T04:53:52.799Z,-0.10
2023-03-02T04:56:20.019Z,-0.10
2023-03-02T04:58:46.745Z,-0.10
2023-03-02T05:01:14.961Z,0.00
2023-03-02T05:03:42.081Z,-0.10
2023-03-02T05:06:09.095Z,-0.10
2023-03-02T05:08:35.841Z,0.70
2023-03-02T05:11:03.355Z,-0.10
2023-03-02T05:13:30.187Z,-0.20
2023-03-02T05:15:58.410Z,-0.10
2023-03-02T05:18:25.376Z,-0.20
2023-03-02T05:20:53.742Z,-0.20
2023-03-02T05:23:25.714Z,-0.30
2023-03-02T05:25:55.105Z,-0.20
2023-03-02T05:28:23.223Z,-0.20
2023-03-02T05:30:51.000Z,-0.10
2023-03-02T05:33:18.498Z,0.00
2023-03-02T05:35:45.476Z,0.00
2023-03-02T05:38:12.492Z,0.10
2023-03-02T05:40:40.421Z,0.20
2023-03-02T05:43:07.381Z,0.20
2023-03-02T05:45:38.772Z,0.20
2023-03-02T05:48:06.005Z,0.20
2023-03-02T05:50:33.155Z,0.20
2023-03-02T05:53:02.370Z,0.20
2023-03-02T05:55:29.616Z,0.20
2023-03-02T05:57:56.945Z,0.10
2023-03-02T06:00:24.032Z,0.10
2023-03-02T06:02:50.872Z,0.10
2023-03-02T06:05:19.609Z,0.00
2023-03-02T06:07:46.564Z,0.10
2023-03-02T06:10:13.998Z,0.00
2023-03-02T06:12:40.913Z,0.00
2023-03-02T06:15:08.897Z,-0.10
2023-03-02T06:17:35.870Z,-0.10
2023-03-02T06:20:04.986Z,-0.10
2023-03-02T06:22:31.673Z,-0.20
2023-03-02T06:24:58.325Z,-0.20
2023-03-02T06:27:24.970Z,-0.20
2023-03-02T06:29:51.752Z,-0.20
2023-03-02T06:32:18.510Z,-0.10
2023-03-02T06:34:45.275Z,-0.10
2023-03-02T06:37:11.991Z,-0.10
2023-03-02T06:39:38.749Z,0.00
2023-03-02T06:42:05.479Z,0.10
2023-03-02T06:44:32.314Z,0.20
2023-03-02T06:46:58.957Z,0.20
2023-03-02T06:49:25.747Z,0.30
2023-03-02T06:51:52.403Z,0.30
2023-03-02T06:54:19.094Z,0.40
2023-03-02T06:56:45.740Z,0.50
2023-03-02T06:59:12.377Z,0.60
2023-03-02T07:01:39.104Z,0.50
2023-03-02T07:04:05.864Z,0.60
2023-03-02T07:06:32.639Z,0.60
2023-03-02T07:08:59.271Z,0.60
2023-03-02T07:11:25.916Z,0.70
2023-03-02T07:13:52.626Z,0.80
2023-03-02T07:16:19.369Z,0.80
2023-03-02T07:18:46.088Z,0.90
2023-03-02T07:21:12.779Z,0.90
2023-03-02T07:23:39.441Z,1.00
2023-03-02T07:26:08.518Z,1.00
2023-03-02T07:28:41.677Z,1.10
2023-03-02T07:31:09.665Z,1.10
2023-03-02T07:33:37.668Z,1.10
2023-03-02T07:36:05.399Z,1.20
2023-03-02T07:38:32.354Z,1.20
2023-03-02T07:40:59.036Z,1.30
2023-03-02T07:43:26.564Z,1.40
2023-03-02T07:45:53.287Z,1.40
2023-03-02T07:48:20.093Z,1.50
2023-03-02T07:50:46.822Z,1.50
2023-03-02T07:53:13.449Z,1.70
2023-03-02T07:55:41.534Z,1.70
2023-03-02T07:58:08.509Z,1.70
2023-03-02T08:00:36.663Z,1.80
2023-03-02T08:03:03.503Z,1.90
2023-03-02T08:05:31.126Z,2.00
2023-03-02T08:07:57.927Z,2.10
2023-03-02T08:10:24.594Z,2.10
2023-03-02T08:12:51.273Z,2.20
2023-03-02T08:15:18.014Z,2.30
2023-03-02T08:17:45.056Z,2.30
2023-03-02T08:20:12.270Z,2.40
2023-03-02T08:22:39.044Z,2.50
2023-03-02T08:25:07.226Z,2.50
2023-03-02T08:27:34.032Z,2.60
2023-03-02T08:30:00.711Z,2.60
2023-03-02T08:32:27.604Z,2.70
2023-03-02T08:34:54.489Z,2.70
2023-03-02T08:37:21.192Z,2.80
2023-03-02T08:39:48.394Z,3.00
2023-03-02T08:42:15.196Z,3.00
2023-03-02T08:44:41.861Z,3.10
2023-03-02T08:47:08.582Z,3.10
2023-03-02T08:49:38.047Z,3.20
2023-03-02T08:52:05.364Z,3.20
2023-03-02T08:54:34.455Z,3.40
2023-03-02T08:57:02.493Z,3.40
2023-03-02T08:59:29.205Z,3.50
2023-03-02T09:01:55.889Z,3.60
2023-03-02T09:04:22.669Z,3.80
2023-03-02T09:06:49.429Z,4.00
2023-03-02T09:09:16.113Z,4.10
2023-03-02T09:11:44.762Z,4.10
2023-03-02T09:14:12.373Z,4.20
2023-03-02T09:16:39.482Z,4.30
2023-03-02T09:19:06.562Z,4.40
2023-03-02T09:21:33.516Z,4.40
2023-03-02T09:24:00.503Z,4.50
2023-03-02T09:26:27.945Z,4.50
2023-03-02T09:28:55.665Z,4.60
2023-03-02T09:31:22.608Z,4.60
2023-03-02T09:33:49.371Z,4.70
2023-03-02T09:36:23.621Z,4.80
2023-03-02T09:38:50.493Z,4.80
2023-03-02T09:41:20.228Z,4.90
2023-03-02T09:44:08.194Z,5.00
2023-03-02T09:46:52.138Z,5.20
2023-03-02T09:50:02.992Z,5.20
2023-03-02T09:52:55.876Z,5.30
2023-03-02T09:55:27.517Z,5.40
2023-03-02T09:57:55.467Z,5.50
2023-03-02T10:02:54.008Z,5.70
2023-03-02T10:05:27.262Z,5.70
2023-03-02T10:07:53.993Z,5.80
2023-03-02T10:10:33.599Z,6.00
2023-03-02T10:13:08.959Z,6.10
2023-03-02T10:15:38.481Z,6.20
2023-03-02T10:20:43.598Z,6.30
2023-03-02T10:23:33.497Z,6.60
2023-03-02T10:26:17.634Z,6.40
2023-03-02T10:28:50.037Z,6.50
2023-03-02T10:31:27.285Z,6.60
2023-03-02T10:33:54.451Z,6.70
2023-03-02T10:36:37.338Z,6.80
2023-03-02T10:39:12.315Z,6.80
2023-03-02T10:41:46.282Z,6.90
2023-03-02T10:44:27.329Z,6.90
2023-03-02T10:49:30.145Z,7.20
2023-03-02T10:51:59.927Z,7.30
2023-03-02T10:54:28.728Z,7.50
2023-03-02T10:56:58.723Z,7.30
2023-03-02T10:59:25.970Z,7.40
2023-03-02T11:02:19.144Z,7.50
2023-03-02T11:04:46.039Z,7.50
2023-03-02T11:07:21.336Z,7.60
2023-03-02T11:10:20.065Z,7.80
2023-03-02T11:12:49.047Z,7.80
2023-03-02T11:15:18.328Z,8.00
2023-03-02T11:17:48.183Z,8.10
2023-03-02T11:20:26.101Z,8.20
2023-03-02T11:23:13.424Z,8.20
2023-03-02T11:25:48.413Z,8.30
2023-03-02T11:28:33.252Z,8.40
2023-03-02T11:31:02.470Z,8.50
2023-03-02T11:33:52.553Z,8.50
2023-03-02T11:36:23.799Z,8.60
2023-03-02T11:38:54.932Z,8.50
2023-03-02T11:41:29.842Z,8.60
2023-03-02T11:44:20.265Z,8.60
2023-03-02T11:46:51.191Z,8.60
2023-03-02T11:49:28.782Z,8.70
2023-03-02T11:51:58.898Z,8.80
2023-03-02T11:54:40.850Z,8.80
2023-03-02T11:57:20.424Z,8.90
2023-03-02T11:59:47.867Z,9.00
2023-03-02T12:02:15.253Z,9.10
2023-03-02T12:07:25.005Z,9.20
2023-03-02T12:10:06.109Z,9.40
2023-03-02T12:12:44.074Z,9.40
2023-03-02T12:15:35.151Z,9.50
2023-03-02T12:20:30.986Z,9.70
2023-03-02T12:23:09.623Z,9.70
2023-03-02T12:25:40.407Z,9.70
2023-03-02T12:28:26.592Z,9.70
2023-03-02T12:31:02.754Z,9.80
2023-03-02T12:36:21.008Z,9.90
2023-03-02T12:38:59.916Z,10.00
2023-03-02T12:41:32.668Z,10.00
2023-03-02T12:44:20.373Z,10.00
2023-03-02T12:46:48.328Z,10.10
2023-03-02T12:49:32.393Z,10.20
2023-03-02T12:52:21.150Z,10.20
2023-03-02T12:55:19.958Z,10.30
2023-03-02T12:57:56.427Z,10.30
2023-03-02T13:00:26.935Z,10.40
2023-03-02T13:02:56.144Z,10.40
2023-03-02T13:05:26.070Z,10.50
2023-03-02T13:08:00.688Z,10.60
2023-03-02T13:12:54.801Z,10.60
2023-03-02T13:15:21.567Z,10.70
2023-03-02T13:17:57.075Z,10.70
2023-03-02T13:20:27.985Z,10.80
2023-03-02T13:25:28.386Z,10.90
2023-03-02T13:28:07.833Z,10.90
2023-03-02T13:30:37.436Z,10.90
2023-03-02T13:33:22.614Z,11.00
2023-03-02T13:38:18.887Z,11.10
2023-03-02T13:40:48.449Z,11.20
2023-03-02T13:43:30.468Z,11.20
2023-03-02T13:46:25.587Z,11.30
2023-03-02T13:49:11.310Z,11.30
2023-03-02T13:51:42.054Z,11.30
2023-03-02T13:54:25.828Z,11.40
2023-03-02T13:56:53.791Z,11.40
2023-03-02T13:59:21.980Z,11.40
2023-03-02T14:01:48.735Z,11.40
2023-03-02T14:04:17.977Z,11.50
2023-03-02T14:06:45.848Z,11.50
2023-03-02T14:09:13.352Z,11.50
2023-03-02T14:11:46.757Z,11.50
2023-03-02T14:14:19.420Z,11.60
2023-03-02T14:16:46.210Z,11.70
2023-03-02T14:19:13.756Z,11.70
2023-03-02T14:21:42.055Z,11.70
2023-03-02T14:24:09.213Z,11.80
2023-03-02T14:26:44.426Z,11.80
2023-03-02T14:29:26.752Z,11.90
2023-03-02T14:32:00.109Z,11.90
2023-03-02T14:34:27.319Z,11.90
2023-03-02T14:36:58.140Z,11.90
2023-03-02T14:39:42.939Z,12.00
2023-03-02T14:42:16.457Z,12.00
2023-03-02T14:44:44.662Z,12.00
2023-03-02T14:47:11.716Z,12.00
2023-03-02T14:49:39.190Z,12.00
2023-03-02T14:52:16.412Z,12.00
2023-03-02T14:54:56.165Z,12.00
2023-03-02T14:57:25.691Z,11.90
2023-03-02T14:59:53.591Z,11.90
2023-03-02T15:02:26.027Z,11.80
2023-03-02T15:04:56.529Z,11.90
2023-03-02T15:07:24.654Z,11.80
2023-03-02T15:09:51.353Z,11.80
2023-03-02T15:12:18.067Z,11.70
2023-03-02T15:14:45.125Z,11.80
2023-03-02T15:19:39.165Z,11.70
2023-03-02T15:22:05.844Z,11.70
2023-03-02T15:24:33.548Z,11.60
2023-03-02T15:36:49.254Z,11.60
2023-03-02T15:41:43.638Z,11.60
2023-03-02T15:44:21.701Z,11.60
2023-03-02T15:46:56.391Z,11.50
2023-03-02T15:49:24.887Z,11.40
2023-03-02T15:51:52.779Z,11.30
2023-03-02T15:54:19.513Z,11.30
2023-03-02T15:56:49.537Z,11.20
2023-03-02T15:59:16.290Z,11.10
2023-03-02T16:01:42.986Z,11.20
2023-03-02T16:04:10.277Z,11.20
2023-03-02T16:06:37.233Z,11.10
2023-03-02T16:09:04.479Z,11.00
2023-03-02T16:11:31.167Z,11.00
2023-03-02T16:13:57.855Z,10.90
2023-03-02T16:16:24.852Z,10.80
2023-03-02T16:18:53.306Z,10.80
2023-03-02T16:21:20.589Z,10.70
2023-03-02T16:23:47.384Z,10.70
2023-03-02T16:26:16.356Z,10.60
2023-03-02T16:28:43.226Z,10.50
2023-03-02T16:31:15.421Z,10.50
2023-03-02T16:33:42.271Z,10.40
2023-03-02T16:36:09.600Z,10.40
2023-03-02T16:38:37.452Z,10.30
2023-03-02T16:41:10.094Z,10.20
2023-03-02T16:43:44.150Z,10.10
2023-03-02T16:46:10.951Z,10.00
2023-03-02T16:48:37.701Z,10.00
2023-03-02T16:51:04.921Z,9.90
2023-03-02T16:53:31.848Z,9.80
2023-03-02T16:55:58.635Z,9.80
2023-03-02T16:58:25.800Z,9.70
2023-03-02T17:00:52.663Z,9.60
2023-03-02T17:03:19.410Z,9.50
2023-03-02T17:05:46.252Z,9.40
2023-03-02T17:08:15.267Z,9.40
2023-03-02T17:10:43.148Z,9.30
2023-03-02T17:13:12.121Z,9.20
2023-03-02T17:15:38.924Z,9.20
2023-03-02T17:18:05.673Z,9.20
2023-03-02T17:20:32.328Z,9.10
2023-03-02T17:22:59.043Z,9.10
2023-03-02T17:25:26.062Z,9.10
2023-03-02T17:27:52.800Z,9.00
2023-03-02T17:30:20.138Z,8.90
2023-03-02T17:32:47.081Z,8.80
2023-03-02T17:35:14.260Z,8.80
2023-03-02T17:37:41.213Z,8.80
2023-03-02T17:40:08.808Z,8.70
2023-03-02T17:42:35.908Z,8.50
2023-03-02T17:45:02.652Z,8.70
2023-03-02T17:47:30.603Z,8.60
2023-03-02T17:49:58.339Z,8.50
2023-03-02T17:52:25.405Z,8.40
2023-03-02T17:54:54.095Z,8.40
2023-03-02T17:57:22.627Z,8.30
2023-03-02T17:59:52.766Z,8.30
2023-03-02T18:02:19.505Z,8.20
2023-03-02T18:04:46.310Z,8.20
2023-03-02T18:07:14.207Z,8.10
2023-03-02T18:09:40.863Z,8.10
2023-03-02T18:12:08.042Z,8.00
2023-03-02T18:14:36.270Z,7.90
2023-03-02T18:17:04.964Z,8.00
2023-03-02T18:19:31.698Z,7.90
2023-03-02T18:21:58.667Z,7.90
2023-03-02T18:24:25.958Z,7.80
2023-03-02T18:26:52.806Z,7.70
2023-03-02T18:29:19.645Z,7.70
2023-03-02T18:31:46.379Z,9.10
2023-03-02T18:34:13.213Z,7.70
2023-03-02T18:36:39.951Z,7.60
2023-03-02T18:39:06.637Z,7.60
2023-03-02T18:41:33.346Z,7.60
2023-03-02T18:44:01.287Z,7.50
2023-03-02T18:46:30.634Z,7.50
2023-03-02T18:48:58.369Z,7.40
2023-03-02T18:51:25.623Z,7.30
2023-03-02T18:53:53.298Z,7.30
2023-03-02T18:56:20.555Z,7.30
2023-03-02T18:58:49.610Z,7.20
2023-03-02T19:01:16.803Z,7.30
2023-03-02T19:03:45.711Z,7.20
2023-03-02T19:06:13.201Z,7.10
2023-03-02T19:11:08.777Z,7.10
2023-03-02T19:13:35.546Z,7.00
2023-03-02T19:16:03.055Z,7.00
2023-03-02T19:18:30.896Z,7.00
2023-03-02T19:20:57.883Z,6.90
2023-03-02T19:23:25.161Z,6.80
2023-03-02T19:25:52.420Z,6.80
2023-03-02T19:28:21.588Z,6.80
2023-03-02T19:30:49.483Z,6.80
2023-03-02T19:33:16.573Z,6.80
2023-03-02T19:35:43.670Z,6.70
2023-03-02T19:38:10.901Z,6.60
2023-03-02T19:40:38.111Z,6.60
2023-03-02T19:43:05.237Z,6.50
2023-03-02T19:45:34.818Z,6.40
2023-03-02T19:48:02.744Z,6.30
2023-03-02T19:50:30.228Z,6.30
2023-03-02T19:52:57.916Z,6.20
2023-03-02T19:55:25.528Z,6.20
2023-03-02T19:57:59.463Z,6.20
2023-03-02T20:00:28.218Z,6.20
2023-03-02T20:02:55.348Z,6.20
2023-03-02T20:05:22.121Z,6.20
2023-03-02T20:07:49.002Z,6.10
2023-03-02T20:10:46.174Z,3.80
2023-03-02T20:13:12.986Z,6.00
2023-03-02T20:15:41.656Z,6.00
2023-03-02T20:18:11.288Z,6.00
2023-03-02T23:49:35.305Z,2.90
2023-03-02T23:52:02.169Z,2.80
2023-03-02T23:54:28.878Z,2.70
2023-03-02T23:56:55.870Z,2.70
2023-03-02T23:59:22.541Z,2.70
